sensor_id;sensor_type;location;lat;lon;timestamp;pressure;altitude;pressure_sealevel;temperature;humidity
56456;BME280;42354;53.218;6.564;2023-05-11T00:01:12;47252.00;;;-142.92;100.00
56456;BME280;42354;53.218;6.564;2023-05-11T00:03:38;47258.16;;;-142.92;100.00
56456;BME280;42354;53.218;6.564;2023-05-11T00:06:03;47260.22;;;-142.92;100.00
56456;BME280;42354;53.218;6.564;2023-05-11T00:08:29;47254.06;;;-142.92;100.00
56456;BME280;42354;53.218;6.564;2023-05-11T00:10:54;47258.16;;;-142.92;100.00
56456;BME280;42354;53.218;6.564;2023-05-11T00:13:19;47256.13;;;-142.92;100.00
56456;BME280;42354;53.218;6.564;2023-05-11T00:15:45;47254.06;;;-142.92;100.00
56456;BME280;42354;53.218;6.564;2023-05-11T00:18:10;47262.28;;;-142.92;100.00
56456;BME280;42354;53.218;6.564;2023-05-11T00:20:36;47262.28;;;-142.92;100.00
56456;BME280;42354;53.218;6.564;2023-05-11T00:23:02;47258.16;;;-142.92;100.00
56456;BME280;42354;53.218;6.564;2023-05-11T00:25:27;47254.06;;;-142.92;100.00
56456;BME280;42354;53.218;6.564;2023-05-11T00:27:53;47256.13;;;-142.92;100.00
56456;BME280;42354;53.218;6.564;2023-05-11T00:30:18;47264.31;;;-142.92;100.00
56456;BME280;42354;53.218;6.564;2023-05-11T00:32:44;47258.16;;;-142.92;100.00
56456;BME280;42354;53.218;6.564;2023-05-11T00:35:10;47256.13;;;-142.92;100.00
56456;BME280;42354;53.218;6.564;2023-05-11T00:37:36;47256.13;;;-142.92;100.00
56456;BME280;42354;53.218;6.564;2023-05-11T00:40:03;47258.16;;;-142.92;100.00
56456;BME280;42354;53.218;6.564;2023-05-11T00:42:29;47256.13;;;-142.92;100.00
56456;BME280;42354;53.218;6.564;2023-05-11T00:44:54;47254.06;;;-142.92;100.00
56456;BME280;42354;53.218;6.564;2023-05-11T00:47:20;47260.22;;;-142.92;100.00
56456;BME280;42354;53.218;6.564;2023-05-11T00:49:45;47260.22;;;-142.92;100.00
56456;BME280;42354;53.218;6.564;2023-05-11T00:52:11;47260.22;;;-142.92;100.00
56456;BME280;42354;53.218;6.564;2023-05-11T00:54:38;47258.16;;;-142.92;100.00
56456;BME280;42354;53.218;6.564;2023-05-11T00:57:03;47260.22;;;-142.92;100.00
56456;BME280;42354;53.218;6.564;2023-05-11T00:59:29;47258.16;;;-142.92;100.00
56456;BME280;42354;53.218;6.564;2023-05-11T01:01:54;47256.13;;;-142.92;100.00
56456;BME280;42354;53.218;6.564;2023-05-11T01:04:20;47258.16;;;-142.92;100.00
56456;BME280;42354;53.218;6.564;2023-05-11T01:17:37;47256.13;;;-142.92;100.00
56456;BME280;42354;53.218;6.564;2023-05-11T01:20:11;47260.22;;;-142.92;100.00
56456;BME280;42354;53.218;6.564;2023-05-11T01:23:11;47258.16;;;-142.92;100.00
56456;BME280;42354;53.218;6.564;2023-05-11T01:31:29;47258.16;;;-142.92;100.00
56456;BME280;42354;53.218;6.564;2023-05-11T01:34:00;47264.31;;;-142.92;100.00
56456;BME280;42354;53.218;6.564;2023-05-11T01:36:31;47256.13;;;-142.92;100.00
56456;BME280;42354;53.218;6.564;2023-05-11T01:39:02;47260.22;;;-142.92;100.00
56456;BME280;42354;53.218;6.564;2023-05-11T01:41:30;47256.13;;;-142.92;100.00
56456;BME280;42354;53.218;6.564;2023-05-11T01:43:59;47254.06;;;-142.92;100.00
56456;BME280;42354;53.218;6.564;2023-05-11T01:46:32;47258.16;;;-142.92;100.00
56456;BME280;42354;53.218;6.564;2023-05-11T01:48:59;47254.06;;;-142.92;100.00
56456;BME280;42354;53.218;6.564;2023-05-11T01:51:29;47262.28;;;-142.92;100.00
56456;BME280;42354;53.218;6.564;2023-05-11T01:53:58;47262.28;;;-142.92;100.00
56456;BME280;42354;53.218;6.564;2023-05-11T01:56:24;47264.31;;;-142.92;100.00
56456;BME280;42354;53.218;6.564;2023-05-11T01:58:51;47262.28;;;-142.92;100.00
56456;BME280;42354;53.218;6.564;2023-05-11T02:01:18;47260.22;;;-142.92;100.00
56456;BME280;42354;53.218;6.564;2023-05-11T02:03:46;47260.22;;;-142.92;100.00
56456;BME280;42354;53.218;6.564;2023-05-11T02:06:13;47258.16;;;-142.92;100.00
56456;BME280;42354;53.218;6.564;2023-05-11T02:08:40;47256.13;;;-142.92;100.00
56456;BME280;42354;53.218;6.564;2023-05-11T02:11:07;47258.16;;;-142.92;100.00
56456;BME280;42354;53.218;6.564;2023-05-11T02:13:34;47256.13;;;-142.92;100.00
56456;BME280;42354;53.218;6.564;2023-05-11T02:16:01;47258.16;;;-142.92;100.00
56456;BME280;42354;53.218;6.564;2023-05-11T02:18:28;47254.06;;;-142.92;100.00
56456;BME280;42354;53.218;6.564;2023-05-11T02:20:55;47256.13;;;-142.92;100.00
56456;BME280;42354;53.218;6.564;2023-05-11T02:23:21;47262.28;;;-142.92;100.00
56456;BME280;42354;53.218;6.564;2023-05-11T02:25:50;47260.22;;;-142.92;100.00
56456;BME280;42354;53.218;6.564;2023-05-11T02:28:16;47262.28;;;-142.92;100.00
56456;BME280;42354;53.218;6.564;2023-05-11T02:30:48;47262.28;;;-142.92;100.00
56456;BME280;42354;53.218;6.564;2023-05-11T02:33:34;47256.13;;;-142.92;100.00
56456;BME280;42354;53.218;6.564;2023-05-11T02:36:04;47260.22;;;-142.92;100.00
56456;BME280;42354;53.218;6.564;2023-05-11T02:38:34;47260.22;;;-142.92;100.00
56456;BME280;42354;53.218;6.564;2023-05-11T02:41:03;47256.13;;;-142.92;100.00
56456;BME280;42354;53.218;6.564;2023-05-11T02:43:33;47258.16;;;-142.92;100.00
56456;BME280;42354;53.218;6.564;2023-05-11T02:46:02;47258.16;;;-142.92;100.00
56456;BME280;42354;53.218;6.564;2023-05-11T02:48:31;47262.28;;;-142.92;100.00
56456;BME280;42354;53.218;6.564;2023-05-11T02:50:59;47262.28;;;-142.92;100.00
56456;BME280;42354;53.218;6.564;2023-05-11T02:53:27;47260.22;;;-142.92;100.00
56456;BME280;42354;53.218;6.564;2023-05-11T02:55:56;47258.16;;;-142.92;100.00
56456;BME280;42354;53.218;6.564;2023-05-11T02:58:22;47260.22;;;-142.92;100.00
56456;BME280;42354;53.218;6.564;2023-05-11T03:00:48;47262.28;;;-142.92;100.00
56456;BME280;42354;53.218;6.564;2023-05-11T03:03:14;47262.28;;;-142.92;100.00
56456;BME280;42354;53.218;6.564;2023-05-11T03:05:39;47262.28;;;-142.92;100.00
56456;BME280;42354;53.218;6.564;2023-05-11T03:08:04;47264.31;;;-142.92;100.00
56456;BME280;42354;53.218;6.564;2023-05-11T03:10:30;47256.13;;;-142.92;100.00
56456;BME280;42354;53.218;6.564;2023-05-11T03:12:55;47258.16;;;-142.92;100.00
56456;BME280;42354;53.218;6.564;2023-05-11T03:15:21;47262.28;;;-142.92;100.00
56456;BME280;42354;53.218;6.564;2023-05-11T03:17:48;47258.16;;;-142.92;100.00
56456;BME280;42354;53.218;6.564;2023-05-11T03:20:15;47258.16;;;-142.92;100.00
56456;BME280;42354;53.218;6.564;2023-05-11T03:22:41;47258.16;;;-142.92;100.00
56456;BME280;42354;53.218;6.564;2023-05-11T03:25:08;47260.22;;;-142.92;100.00
56456;BME280;42354;53.218;6.564;2023-05-11T03:27:34;47254.06;;;-142.92;100.00
56456;BME280;42354;53.218;6.564;2023-05-11T03:30:02;47262.28;;;-142.92;100.00
56456;BME280;42354;53.218;6.564;2023-05-11T03:32:28;47258.16;;;-142.92;100.00
56456;BME280;42354;53.218;6.564;2023-05-11T03:34:54;47256.13;;;-142.92;100.00
56456;BME280;42354;53.218;6.564;2023-05-11T03:37:20;47258.16;;;-142.92;100.00
56456;BME280;42354;53.218;6.564;2023-05-11T03:39:47;47254.06;;;-142.92;100.00
56456;BME280;42354;53.218;6.564;2023-05-11T03:42:16;47258.16;;;-142.92;100.00
56456;BME280;42354;53.218;6.564;2023-05-11T03:44:45;47262.28;;;-142.92;100.00
56456;BME280;42354;53.218;6.564;2023-05-11T03:47:13;47254.06;;;-142.92;100.00
56456;BME280;42354;53.218;6.564;2023-05-11T03:49:40;47258.16;;;-142.92;100.00
56456;BME280;42354;53.218;6.564;2023-05-11T03:52:06;47256.13;;;-142.92;100.00
56456;BME280;42354;53.218;6.564;2023-05-11T03:54:32;47262.28;;;-142.92;100.00
56456;BME280;42354;53.218;6.564;2023-05-11T03:56:57;47262.28;;;-142.92;100.00
56456;BME280;42354;53.218;6.564;2023-05-11T03:59:23;47256.13;;;-142.92;100.00
56456;BME280;42354;53.218;6.564;2023-05-11T04:01:49;47260.22;;;-142.92;100.00
56456;BME280;42354;53.218;6.564;2023-05-11T04:04:27;47256.13;;;-142.92;100.00
56456;BME280;42354;53.218;6.564;2023-05-11T04:06:53;47260.22;;;-142.92;100.00
56456;BME280;42354;53.218;6.564;2023-05-11T04:09:19;47254.06;;;-142.92;100.00
56456;BME280;42354;53.218;6.564;2023-05-11T04:11:44;47256.13;;;-142.92;100.00
56456;BME280;42354;53.218;6.564;2023-05-11T04:14:11;47256.13;;;-142.92;100.00
56456;BME280;42354;53.218;6.564;2023-05-11T04:16:36;47260.22;;;-142.92;100.00
56456;BME280;42354;53.218;6.564;2023-05-11T04:19:01;47256.13;;;-142.92;100.00
56456;BME280;42354;53.218;6.564;2023-05-11T04:21:27;47260.22;;;-142.92;100.00
56456;BME280;42354;53.218;6.564;2023-05-11T04:23:52;47256.13;;;-142.92;100.00
56456;BME280;42354;53.218;6.564;2023-05-11T04:26:18;47258.16;;;-142.92;100.00
56456;BME280;42354;53.218;6.564;2023-05-11T04:28:44;47260.22;;;-142.92;100.00
56456;BME280;42354;53.218;6.564;2023-05-11T04:31:09;47256.13;;;-142.92;100.00
56456;BME280;42354;53.218;6.564;2023-05-11T04:33:35;47256.13;;;-142.92;100.00
56456;BME280;42354;53.218;6.564;2023-05-11T04:36:00;47256.13;;;-142.92;100.00
56456;BME280;42354;53.218;6.564;2023-05-11T04:38:26;47256.13;;;-142.92;100.00
56456;BME280;42354;53.218;6.564;2023-05-11T04:40:51;47256.13;;;-142.92;100.00
56456;BME280;42354;53.218;6.564;2023-05-11T04:43:17;47262.28;;;-142.92;100.00
56456;BME280;42354;53.218;6.564;2023-05-11T04:45:47;47258.16;;;-142.92;100.00
56456;BME280;42354;53.218;6.564;2023-05-11T04:48:12;47258.16;;;-142.92;100.00
56456;BME280;42354;53.218;6.564;2023-05-11T04:50:38;47254.06;;;-142.92;100.00
56456;BME280;42354;53.218;6.564;2023-05-11T04:53:03;47266.38;;;-142.92;100.00
56456;BME280;42354;53.218;6.564;2023-05-11T04:55:28;47254.06;;;-142.92;100.00
56456;BME280;42354;53.218;6.564;2023-05-11T04:57:54;47256.13;;;-142.92;100.00
56456;BME280;42354;53.218;6.564;2023-05-11T05:00:20;47260.22;;;-142.92;100.00
56456;BME280;42354;53.218;6.564;2023-05-11T05:02:45;47260.22;;;-142.92;100.00
56456;BME280;42354;53.218;6.564;2023-05-11T05:05:12;47258.16;;;-142.92;100.00
56456;BME280;42354;53.218;6.564;2023-05-11T05:07:37;47258.16;;;-142.92;100.00
56456;BME280;42354;53.218;6.564;2023-05-11T05:10:03;47258.16;;;-142.92;100.00
56456;BME280;42354;53.218;6.564;2023-05-11T05:12:34;47256.13;;;-142.92;100.00
56456;BME280;42354;53.218;6.564;2023-05-11T05:14:59;47260.22;;;-142.92;100.00
56456;BME280;42354;53.218;6.564;2023-05-11T05:17:24;47260.22;;;-142.92;100.00
56456;BME280;42354;53.218;6.564;2023-05-11T05:19:50;47258.16;;;-142.92;100.00
56456;BME280;42354;53.218;6.564;2023-05-11T05:22:15;47260.22;;;-142.92;100.00
56456;BME280;42354;53.218;6.564;2023-05-11T05:24:40;47260.22;;;-142.92;100.00
56456;BME280;42354;53.218;6.564;2023-05-11T05:27:06;47262.28;;;-142.92;100.00
56456;BME280;42354;53.218;6.564;2023-05-11T05:29:31;47260.22;;;-142.92;100.00
56456;BME280;42354;53.218;6.564;2023-05-11T05:32:00;47262.28;;;-142.92;100.00
56456;BME280;42354;53.218;6.564;2023-05-11T05:34:25;47254.06;;;-142.92;100.00
56456;BME280;42354;53.218;6.564;2023-05-11T05:36:50;47258.16;;;-142.92;100.00
56456;BME280;42354;53.218;6.564;2023-05-11T05:39:16;47260.22;;;-142.92;100.00
56456;BME280;42354;53.218;6.564;2023-05-11T05:41:41;47258.16;;;-142.92;100.00
56456;BME280;42354;53.218;6.564;2023-05-11T05:44:07;47258.16;;;-142.92;100.00
56456;BME280;42354;53.218;6.564;2023-05-11T05:46:32;47258.16;;;-142.92;100.00
56456;BME280;42354;53.218;6.564;2023-05-11T05:48:58;47260.22;;;-142.92;100.00
56456;BME280;42354;53.218;6.564;2023-05-11T05:51:23;47256.13;;;-142.92;100.00
56456;BME280;42354;53.218;6.564;2023-05-11T05:53:48;47258.16;;;-142.92;100.00
56456;BME280;42354;53.218;6.564;2023-05-11T05:56:14;47258.16;;;-142.92;100.00
56456;BME280;42354;53.218;6.564;2023-05-11T05:58:40;47258.16;;;-142.92;100.00
56456;BME280;42354;53.218;6.564;2023-05-11T06:01:06;47260.22;;;-142.92;100.00
56456;BME280;42354;53.218;6.564;2023-05-11T06:03:31;47258.16;;;-142.92;100.00
56456;BME280;42354;53.218;6.564;2023-05-11T06:05:57;47262.28;;;-142.92;100.00
56456;BME280;42354;53.218;6.564;2023-05-11T06:08:22;47258.16;;;-142.92;100.00
56456;BME280;42354;53.218;6.564;2023-05-11T06:10:47;47262.28;;;-142.92;100.00
56456;BME280;42354;53.218;6.564;2023-05-11T06:13:13;47260.22;;;-142.92;100.00
56456;BME280;42354;53.218;6.564;2023-05-11T06:15:38;47260.22;;;-142.92;100.00
56456;BME280;42354;53.218;6.564;2023-05-11T06:18:04;47264.31;;;-142.92;100.00
56456;BME280;42354;53.218;6.564;2023-05-11T06:20:30;47258.16;;;-142.92;100.00
56456;BME280;42354;53.218;6.564;2023-05-11T06:22:56;47260.22;;;-142.92;100.00
56456;BME280;42354;53.218;6.564;2023-05-11T06:25:21;47256.13;;;-142.92;100.00
56456;BME280;42354;53.218;6.564;2023-05-11T06:27:46;47256.13;;;-142.92;100.00
56456;BME280;42354;53.218;6.564;2023-05-11T06:30:12;47245.84;;;-142.92;100.00
56456;BME280;42354;53.218;6.564;2023-05-11T06:32:37;47225.34;;;-142.92;100.00
56456;BME280;42354;53.218;6.564;2023-05-11T06:35:03;47227.38;;;-142.92;100.00
56456;BME280;42354;53.218;6.564;2023-05-11T06:37:30;47227.38;;;-142.92;100.00
56456;BME280;42354;53.218;6.564;2023-05-11T06:39:57;47221.22;;;-142.92;100.00
56456;BME280;42354;53.218;6.564;2023-05-11T06:42:22;47231.50;;;-142.92;100.00
56456;BME280;42354;53.218;6.564;2023-05-11T06:44:48;47225.34;;;-142.92;100.00
56456;BME280;42354;53.218;6.564;2023-05-11T06:47:13;47235.59;;;-142.92;100.00
56456;BME280;42354;53.218;6.564;2023-05-11T06:49:40;47239.69;;;-142.92;100.00
56456;BME280;42354;53.218;6.564;2023-05-11T06:52:05;47241.75;;;-142.92;100.00
56456;BME280;42354;53.218;6.564;2023-05-11T06:54:31;47235.59;;;-142.92;100.00
56456;BME280;42354;53.218;6.564;2023-05-11T06:56:56;47229.44;;;-142.92;100.00
56456;BME280;42354;53.218;6.564;2023-05-11T06:59:22;47231.50;;;-142.92;100.00
56456;BME280;42354;53.218;6.564;2023-05-11T07:01:47;47233.53;;;-142.92;100.00
56456;BME280;42354;53.218;6.564;2023-05-11T07:04:12;47227.38;;;-142.92;100.00
56456;BME280;42354;53.218;6.564;2023-05-11T07:06:38;47219.19;;;-142.92;100.00
56456;BME280;42354;53.218;6.564;2023-05-11T07:09:03;47184.28;;;-142.92;100.00
56456;BME280;42354;53.218;6.564;2023-05-11T07:11:29;47192.50;;;-142.92;100.00
56456;BME280;42354;53.218;6.564;2023-05-11T07:13:55;47132.97;;;-142.92;100.00
56456;BME280;42354;53.218;6.564;2023-05-11T07:16:20;47065.25;;;-142.92;100.00
56456;BME280;42354;53.218;6.564;2023-05-11T07:18:45;47028.31;;;-142.92;100.00
56456;BME280;42354;53.218;6.564;2023-05-11T07:21:11;46979.06;;;-142.92;100.00
56456;BME280;42354;53.218;6.564;2023-05-11T07:23:40;46880.59;;;-142.92;100.00
56456;BME280;42354;53.218;6.564;2023-05-11T07:26:07;46802.59;;;-142.92;100.00
56456;BME280;42354;53.218;6.564;2023-05-11T07:28:36;47011.91;;;-142.92;100.00
56456;BME280;42354;53.218;6.564;2023-05-11T07:31:04;47007.81;;;-142.92;100.00
56456;BME280;42354;53.218;6.564;2023-05-11T07:33:30;47009.84;;;-142.92;100.00
56456;BME280;42354;53.218;6.564;2023-05-11T07:35:56;47003.69;;;-142.92;100.00
56456;BME280;42354;53.218;6.564;2023-05-11T07:38:24;46995.50;;;-142.92;100.00
56456;BME280;42354;53.218;6.564;2023-05-11T07:40:50;47003.69;;;-142.92;100.00
56456;BME280;42354;53.218;6.564;2023-05-11T07:43:15;47003.69;;;-142.92;100.00
56456;BME280;42354;53.218;6.564;2023-05-11T07:45:41;47003.69;;;-142.92;100.00
56456;BME280;42354;53.218;6.564;2023-05-11T07:48:06;47007.81;;;-142.92;100.00
56456;BME280;42354;53.218;6.564;2023-05-11T07:50:31;47005.75;;;-142.92;100.00
56456;BME280;42354;53.218;6.564;2023-05-11T07:52:57;47009.84;;;-142.92;100.00
56456;BME280;42354;53.218;6.564;2023-05-11T07:55:22;47001.66;;;-142.92;100.00
56456;BME280;42354;53.218;6.564;2023-05-11T07:57:50;47003.69;;;-142.92;100.00
56456;BME280;42354;53.218;6.564;2023-05-11T08:00:17;47011.91;;;-142.92;100.00
56456;BME280;42354;53.218;6.564;2023-05-11T08:02:42;47003.69;;;-142.92;100.00
56456;BME280;42354;53.218;6.564;2023-05-11T08:05:08;47024.22;;;-142.92;100.00
56456;BME280;42354;53.218;6.564;2023-05-11T08:07:33;47001.66;;;-142.92;100.00
56456;BME280;42354;53.218;6.564;2023-05-11T08:10:00;47007.81;;;-142.92;100.00
56456;BME280;42354;53.218;6.564;2023-05-11T08:12:25;47009.84;;;-142.92;100.00
56456;BME280;42354;53.218;6.564;2023-05-11T08:14:51;46991.38;;;-142.92;100.00
56456;BME280;42354;53.218;6.564;2023-05-11T08:17:16;46989.34;;;-142.92;100.00
56456;BME280;42354;53.218;6.564;2023-05-11T08:19:41;46987.28;;;-142.92;100.00
56456;BME280;42354;53.218;6.564;2023-05-11T08:22:07;46987.28;;;-142.92;100.00
56456;BME280;42354;53.218;6.564;2023-05-11T08:24:32;47007.81;;;-142.92;100.00
56456;BME280;42354;53.218;6.564;2023-05-11T08:26:58;47001.66;;;-142.92;100.00
56456;BME280;42354;53.218;6.564;2023-05-11T08:29:24;47013.97;;;-142.92;100.00
56456;BME280;42354;53.218;6.564;2023-05-11T08:31:52;47005.75;;;-142.92;100.00
56456;BME280;42354;53.218;6.564;2023-05-11T08:34:19;47001.66;;;-142.92;100.00
56456;BME280;42354;53.218;6.564;2023-05-11T08:36:44;47007.81;;;-142.92;100.00
56456;BME280;42354;53.218;6.564;2023-05-11T08:39:09;46997.53;;;-142.92;100.00
56456;BME280;42354;53.218;6.564;2023-05-11T08:41:35;46993.44;;;-142.92;100.00
56456;BME280;42354;53.218;6.564;2023-05-11T08:44:01;46991.38;;;-142.92;100.00
56456;BME280;42354;53.218;6.564;2023-05-11T08:46:28;46995.50;;;-142.92;100.00
56456;BME280;42354;53.218;6.564;2023-05-11T08:48:54;47016.00;;;-142.92;100.00
56456;BME280;42354;53.218;6.564;2023-05-11T08:51:21;47007.81;;;-142.92;100.00
56456;BME280;42354;53.218;6.564;2023-05-11T08:53:47;47009.84;;;-142.92;100.00
56456;BME280;42354;53.218;6.564;2023-05-11T08:56:14;47001.66;;;-142.92;100.00
56456;BME280;42354;53.218;6.564;2023-05-11T08:58:41;46997.53;;;-142.92;100.00
56456;BME280;42354;53.218;6.564;2023-05-11T09:01:09;47011.91;;;-142.92;100.00
56456;BME280;42354;53.218;6.564;2023-05-11T09:03:35;46993.44;;;-142.92;100.00
56456;BME280;42354;53.218;6.564;2023-05-11T09:06:02;47007.81;;;-142.92;100.00
56456;BME280;42354;53.218;6.564;2023-05-11T09:08:30;46993.44;;;-142.92;100.00
56456;BME280;42354;53.218;6.564;2023-05-11T09:10:56;47005.75;;;-142.92;100.00
56456;BME280;42354;53.218;6.564;2023-05-11T09:13:22;46989.34;;;-142.92;100.00
56456;BME280;42354;53.218;6.564;2023-05-11T09:15:50;46999.59;;;-142.92;100.00
56456;BME280;42354;53.218;6.564;2023-05-11T09:18:16;46991.38;;;-142.92;100.00
56456;BME280;42354;53.218;6.564;2023-05-11T09:20:42;47003.69;;;-142.92;100.00
56456;BME280;42354;53.218;6.564;2023-05-11T09:23:08;46997.53;;;-142.92;100.00
56456;BME280;42354;53.218;6.564;2023-05-11T09:25:34;46999.59;;;-142.92;100.00
56456;BME280;42354;53.218;6.564;2023-05-11T09:27:59;47001.66;;;-142.92;100.00
56456;BME280;42354;53.218;6.564;2023-05-11T09:30:26;46999.59;;;-142.92;100.00
56456;BME280;42354;53.218;6.564;2023-05-11T09:32:54;47003.69;;;-142.92;100.00
56456;BME280;42354;53.218;6.564;2023-05-11T09:35:30;46997.53;;;-142.92;100.00
56456;BME280;42354;53.218;6.564;2023-05-11T09:40:33;47001.66;;;-142.92;98.92
56456;BME280;42354;53.218;6.564;2023-05-11T09:43:00;46989.34;;;-142.92;98.10
56456;BME280;42354;53.218;6.564;2023-05-11T09:45:39;47005.75;;;-142.92;96.33
56456;BME280;42354;53.218;6.564;2023-05-11T09:48:06;47003.69;;;-142.92;95.11
56456;BME280;42354;53.218;6.564;2023-05-11T09:50:35;46999.59;;;-142.92;93.79
56456;BME280;42354;53.218;6.564;2023-05-11T09:53:01;46987.28;;;-142.92;93.54
56456;BME280;42354;53.218;6.564;2023-05-11T09:55:26;46993.44;;;-142.92;92.06
56456;BME280;42354;53.218;6.564;2023-05-11T09:57:56;46995.50;;;-142.92;89.69
56456;BME280;42354;53.218;6.564;2023-05-11T10:00:21;47005.75;;;-142.92;88.85
56456;BME280;42354;53.218;6.564;2023-05-11T10:03:01;46995.50;;;-142.92;86.56
56456;BME280;42354;53.218;6.564;2023-05-11T10:05:30;46983.19;;;-142.92;88.72
56456;BME280;42354;53.218;6.564;2023-05-11T10:07:59;46987.28;;;-142.92;87.95
56456;BME280;42354;53.218;6.564;2023-05-11T10:10:26;47007.81;;;-142.92;87.04
56456;BME280;42354;53.218;6.564;2023-05-11T10:12:53;46991.38;;;-142.92;85.46
56456;BME280;42354;53.218;6.564;2023-05-11T10:15:18;46999.59;;;-142.92;84.81
56456;BME280;42354;53.218;6.564;2023-05-11T10:17:52;46997.53;;;-142.92;83.86
56456;BME280;42354;53.218;6.564;2023-05-11T10:20:19;46993.44;;;-142.92;81.68
56456;BME280;42354;53.218;6.564;2023-05-11T10:22:45;46997.53;;;-142.92;81.28
56456;BME280;42354;53.218;6.564;2023-05-11T10:25:12;46999.59;;;-142.92;79.89
56456;BME280;42354;53.218;6.564;2023-05-11T10:27:39;46995.50;;;-142.92;78.04
56456;BME280;42354;53.218;6.564;2023-05-11T10:30:06;46993.44;;;-142.92;75.36
56456;BME280;42354;53.218;6.564;2023-05-11T10:32:35;46991.38;;;-142.92;74.04
56456;BME280;42354;53.218;6.564;2023-05-11T10:35:05;46991.38;;;-142.92;72.67
56456;BME280;42354;53.218;6.564;2023-05-11T10:37:31;46995.50;;;-142.92;70.91
56456;BME280;42354;53.218;6.564;2023-05-11T10:39:57;46985.22;;;-142.92;70.20
56456;BME280;42354;53.218;6.564;2023-05-11T10:47:50;46993.44;;;-142.92;66.16
56456;BME280;42354;53.218;6.564;2023-05-11T10:58:51;47003.69;;;-142.92;64.78
56456;BME280;42354;53.218;6.564;2023-05-11T11:04:02;46977.03;;;-142.92;62.22
56456;BME280;42354;53.218;6.564;2023-05-11T11:06:30;46991.38;;;-142.92;63.22
56456;BME280;42354;53.218;6.564;2023-05-11T11:09:03;46987.28;;;-142.92;62.62
56456;BME280;42354;53.218;6.564;2023-05-11T11:11:39;46987.28;;;-142.92;61.29
56456;BME280;42354;53.218;6.564;2023-05-11T11:14:07;46989.34;;;-142.92;62.99
56456;BME280;42354;53.218;6.564;2023-05-11T11:16:37;46991.38;;;-142.92;63.15
56456;BME280;42354;53.218;6.564;2023-05-11T11:21:54;46983.19;;;-142.92;63.42
56456;BME280;42354;53.218;6.564;2023-05-11T11:27:00;46989.34;;;-142.92;64.58
56456;BME280;42354;53.218;6.564;2023-05-11T11:29:26;46981.13;;;-142.92;64.73
56456;BME280;42354;53.218;6.564;2023-05-11T11:31:52;46999.59;;;-142.92;63.58
56456;BME280;42354;53.218;6.564;2023-05-11T11:39:24;46970.88;;;-142.92;59.50
56456;BME280;42354;53.218;6.564;2023-05-11T11:42:05;46991.38;;;-142.92;58.61
56456;BME280;42354;53.218;6.564;2023-05-11T11:44:35;46989.34;;;-142.92;57.78
56456;BME280;42354;53.218;6.564;2023-05-11T11:47:22;47001.66;;;-142.92;56.08
56456;BME280;42354;53.218;6.564;2023-05-11T11:49:54;46987.28;;;-142.92;55.42
56456;BME280;42354;53.218;6.564;2023-05-11T11:54:50;46991.38;;;-142.92;56.30
56456;BME280;42354;53.218;6.564;2023-05-11T11:59:55;47005.75;;;-142.92;52.10
56456;BME280;42354;53.218;6.564;2023-05-11T12:02:21;46991.38;;;-142.92;50.56
56456;BME280;42354;53.218;6.564;2023-05-11T12:05:09;47007.81;;;-142.92;48.72
56456;BME280;42354;53.218;6.564;2023-05-11T12:07:40;46987.28;;;-142.92;49.04
56456;BME280;42354;53.218;6.564;2023-05-11T12:10:06;46981.13;;;-142.92;50.26
56456;BME280;42354;53.218;6.564;2023-05-11T12:12:32;46987.28;;;-142.92;48.86
56456;BME280;42354;53.218;6.564;2023-05-11T12:14:59;46989.34;;;-142.92;49.84
56456;BME280;42354;53.218;6.564;2023-05-11T12:17:27;46995.50;;;-142.92;50.05
56456;BME280;42354;53.218;6.564;2023-05-11T12:20:10;46993.44;;;-142.92;49.14
56456;BME280;42354;53.218;6.564;2023-05-11T12:22:36;46987.28;;;-142.92;51.00
56456;BME280;42354;53.218;6.564;2023-05-11T12:25:05;46989.34;;;-142.92;50.78
56456;BME280;42354;53.218;6.564;2023-05-11T12:27:32;46987.28;;;-142.92;52.01
56456;BME280;42354;53.218;6.564;2023-05-11T12:29:57;46989.34;;;-142.92;52.31
56456;BME280;42354;53.218;6.564;2023-05-11T12:32:28;46995.50;;;-142.92;52.60
56456;BME280;42354;53.218;6.564;2023-05-11T12:35:01;46979.06;;;-142.92;54.29
56456;BME280;42354;53.218;6.564;2023-05-11T12:37:29;46987.28;;;-142.92;53.23
56456;BME280;42354;53.218;6.564;2023-05-11T12:39:56;46987.28;;;-142.92;52.21
56456;BME280;42354;53.218;6.564;2023-05-11T12:42:21;46981.13;;;-142.92;51.23
56456;BME280;42354;53.218;6.564;2023-05-11T12:44:47;47001.66;;;-142.92;51.52
56456;BME280;42354;53.218;6.564;2023-05-11T12:47:13;47003.69;;;-142.92;51.02
56456;BME280;42354;53.218;6.564;2023-05-11T12:49:40;46985.22;;;-142.92;50.10
56456;BME280;42354;53.218;6.564;2023-05-11T12:52:06;46991.38;;;-142.92;50.57
56456;BME280;42354;53.218;6.564;2023-05-11T12:54:40;46987.28;;;-142.92;49.14
56456;BME280;42354;53.218;6.564;2023-05-11T12:57:23;46970.88;;;-142.92;48.77
56456;BME280;42354;53.218;6.564;2023-05-11T13:00:10;46979.06;;;-142.92;50.56
56456;BME280;42354;53.218;6.564;2023-05-11T13:03:06;46989.34;;;-142.92;49.46
56456;BME280;42354;53.218;6.564;2023-05-11T13:05:34;46983.19;;;-142.92;48.93
56456;BME280;42354;53.218;6.564;2023-05-11T13:08:02;46979.06;;;-142.92;50.28
56456;BME280;42354;53.218;6.564;2023-05-11T13:10:28;46997.53;;;-142.92;51.05
56456;BME280;42354;53.218;6.564;2023-05-11T13:12:54;46989.34;;;-142.92;52.02
56456;BME280;42354;53.218;6.564;2023-05-11T13:15:21;46983.19;;;-142.92;54.30
56456;BME280;42354;53.218;6.564;2023-05-11T13:17:56;46991.38;;;-142.92;56.31
56456;BME280;42354;53.218;6.564;2023-05-11T13:20:31;46993.44;;;-142.92;57.38
56456;BME280;42354;53.218;6.564;2023-05-11T13:23:08;46991.38;;;-142.92;57.75
56456;BME280;42354;53.218;6.564;2023-05-11T13:25:49;46999.59;;;-142.92;59.84